createdAt,value
2023-04-29T00:00:13.537Z,16.60
2023-04-29T00:01:13.597Z,16.20
2023-04-29T00:02:13.685Z,16.37
2023-04-29T00:03:13.903Z,17.00
2023-04-29T00:04:13.883Z,16.73
2023-04-29T00:05:14.146Z,16.29
2023-04-29T00:06:13.962Z,16.32
2023-04-29T00:07:13.901Z,16.23
2023-04-29T00:08:13.954Z,16.13
2023-04-29T00:09:14.434Z,16.26
2023-04-29T00:10:13.962Z,16.58
2023-04-29T00:11:13.978Z,16.68
2023-04-29T00:12:13.982Z,17.41
2023-04-29T00:13:13.990Z,17.79
2023-04-29T00:14:14.047Z,17.84
2023-04-29T00:15:14.089Z,17.73
2023-04-29T00:16:14.078Z,18.23
2023-04-29T00:17:14.223Z,18.29
2023-04-29T00:18:14.258Z,18.35
2023-04-29T00:19:14.252Z,18.56
2023-04-29T00:20:14.305Z,17.49
2023-04-29T00:21:14.369Z,17.33
2023-04-29T00:22:14.412Z,17.21
2023-04-29T00:23:14.450Z,16.57
2023-04-29T00:24:14.507Z,16.11
2023-04-29T00:25:14.550Z,15.99
2023-04-29T00:26:14.599Z,15.46
2023-04-29T00:27:14.651Z,15.89
2023-04-29T00:28:14.697Z,15.98
2023-04-29T00:29:14.687Z,15.10
2023-04-29T00:30:14.780Z,14.59
2023-04-29T00:31:14.933Z,14.55
2023-04-29T00:32:14.782Z,14.31
2023-04-29T00:33:14.795Z,14.15
2023-04-29T00:34:14.815Z,14.08
2023-04-29T00:35:14.801Z,13.63
2023-04-29T00:36:14.817Z,12.82
2023-04-29T00:37:14.841Z,12.49
2023-04-29T00:38:14.825Z,12.42
2023-04-29T00:39:15.522Z,12.29
2023-04-29T00:40:14.830Z,12.04
2023-04-29T00:41:14.848Z,11.98
2023-04-29T00:42:14.819Z,12.33
2023-04-29T00:43:14.876Z,12.07
2023-04-29T00:44:14.908Z,11.99
2023-04-29T00:45:14.902Z,11.39
2023-04-29T00:46:14.943Z,11.22
2023-04-29T00:47:14.926Z,11.39
2023-04-29T00:48:14.929Z,11.58
2023-04-29T00:49:14.970Z,11.74
2023-04-29T00:50:14.964Z,11.80
2023-04-29T00:51:14.944Z,11.75
2023-04-29T00:52:14.973Z,12.13
2023-04-29T00:53:14.976Z,12.01
2023-04-29T00:54:14.980Z,11.87
2023-04-29T00:55:14.955Z,12.18
2023-04-29T00:56:15.009Z,12.49
2023-04-29T00:57:15.013Z,11.79
2023-04-29T00:58:14.993Z,12.24
2023-04-29T00:59:15.003Z,12.08
2023-04-29T01:00:15.024Z,11.82
2023-04-29T01:01:15.053Z,11.62
2023-04-29T01:02:15.057Z,12.01
2023-04-29T01:03:15.199Z,12.18
2023-04-29T01:04:15.137Z,11.72
2023-04-29T01:05:15.096Z,12.25
2023-04-29T01:06:15.136Z,11.90
2023-04-29T01:07:15.118Z,11.68
2023-04-29T01:08:17.151Z,11.93
2023-04-29T01:09:15.131Z,13.46
2023-04-29T01:10:15.133Z,14.15
2023-04-29T01:11:15.738Z,14.80
2023-04-29T01:12:15.111Z,15.19
2023-04-29T01:13:15.090Z,15.57
2023-04-29T01:14:15.077Z,16.00
2023-04-29T01:15:15.087Z,16.02
2023-04-29T01:16:15.119Z,16.56
2023-04-29T01:17:15.139Z,16.99
2023-04-29T01:18:15.034Z,17.10
2023-04-29T01:19:15.034Z,17.05
2023-04-29T01:20:15.052Z,17.04
2023-04-29T01:21:15.034Z,17.50
2023-04-29T01:22:15.006Z,17.54
2023-04-29T01:23:15.003Z,17.19
2023-04-29T01:24:15.036Z,17.48
2023-04-29T01:25:15.018Z,17.65
2023-04-29T01:26:15.003Z,17.57
2023-04-29T01:27:14.963Z,17.60
2023-04-29T01:28:14.989Z,17.51
2023-04-29T01:29:14.984Z,17.69
2023-04-29T01:30:14.987Z,17.61
2023-04-29T01:31:14.979Z,16.99
2023-04-29T01:32:14.949Z,16.98
2023-04-29T01:33:14.941Z,17.33
2023-04-29T01:34:14.904Z,17.01
2023-04-29T01:35:14.917Z,16.79
2023-04-29T01:36:14.946Z,16.57
2023-04-29T01:37:14.884Z,17.13
2023-04-29T01:38:14.930Z,16.31
2023-04-29T01:39:14.895Z,15.93
2023-04-29T01:40:14.888Z,15.08
2023-04-29T01:41:14.890Z,14.73
2023-04-29T01:42:14.900Z,14.64
2023-04-29T01:43:14.883Z,13.93
2023-04-29T01:44:14.865Z,12.87
2023-04-29T01:45:14.856Z,12.65
2023-04-29T01:46:14.883Z,12.87
2023-04-29T01:47:14.868Z,12.79
2023-04-29T01:48:14.851Z,13.48
2023-04-29T01:49:14.837Z,13.68
2023-04-29T01:50:14.831Z,13.78
2023-04-29T01:51:14.833Z,14.15
2023-04-29T01:52:14.787Z,14.43
2023-04-29T01:53:14.808Z,14.33
2023-04-29T01:54:14.788Z,14.92
2023-04-29T01:55:14.785Z,15.61
2023-04-29T01:56:14.811Z,15.59
2023-04-29T01:57:14.792Z,16.01
2023-04-29T01:58:14.762Z,16.58
2023-04-29T01:59:14.774Z,17.20
2023-04-29T02:00:14.782Z,17.70
2023-04-29T02:01:14.785Z,17.43
2023-04-29T02:02:14.767Z,18.05
2023-04-29T02:03:14.804Z,17.99
2023-04-29T02:04:14.756Z,17.17
2023-04-29T02:05:14.708Z,17.24
2023-04-29T02:06:14.718Z,17.01
2023-04-29T02:07:14.684Z,16.74
2023-04-29T02:08:14.723Z,17.09
2023-04-29T02:09:14.691Z,17.08
2023-04-29T02:10:14.702Z,17.55
2023-04-29T02:11:14.700Z,16.92
2023-04-29T02:12:14.680Z,16.94
2023-04-29T02:13:14.659Z,16.65
2023-04-29T02:14:14.665Z,16.14
2023-04-29T02:15:14.635Z,16.38
2023-04-29T02:16:14.659Z,17.04
2023-04-29T02:17:14.635Z,16.68
2023-04-29T02:18:14.617Z,15.95
2023-04-29T02:19:14.660Z,15.19
2023-04-29T02:20:14.660Z,15.69
2023-04-29T02:21:14.614Z,15.21
2023-04-29T02:22:14.601Z,15.65
2023-04-29T02:23:14.579Z,15.05
2023-04-29T02:24:14.573Z,15.27
2023-04-29T02:25:14.621Z,14.76
2023-04-29T02:26:14.593Z,14.28
2023-04-29T02:27:14.596Z,14.52
2023-04-29T02:28:14.603Z,14.36
2023-04-29T02:29:14.564Z,13.60
2023-04-29T02:30:14.576Z,13.41
2023-04-29T02:31:14.567Z,13.71
2023-04-29T02:32:14.628Z,13.72
2023-04-29T02:33:14.584Z,14.13
2023-04-29T02:34:14.557Z,13.45
2023-04-29T02:35:14.537Z,13.26
2023-04-29T02:36:14.558Z,13.31
2023-04-29T02:37:14.636Z,12.91
2023-04-29T02:38:14.588Z,13.24
2023-04-29T02:39:14.613Z,12.94
2023-04-29T02:40:14.611Z,12.12
2023-04-29T02:41:14.633Z,11.93
2023-04-29T02:42:14.664Z,11.31
2023-04-29T02:43:14.648Z,11.11
2023-04-29T02:44:14.668Z,10.68
2023-04-29T02:45:14.671Z,11.08
2023-04-29T02:46:14.756Z,11.30
2023-04-29T02:47:14.713Z,11.44
2023-04-29T02:48:14.746Z,11.32
2023-04-29T02:49:14.730Z,11.42
2023-04-29T02:50:14.736Z,11.80
2023-04-29T02:51:14.764Z,11.26
2023-04-29T02:52:14.777Z,11.47
2023-04-29T02:53:14.779Z,11.44
2023-04-29T02:54:14.823Z,11.52
2023-04-29T02:55:14.849Z,11.48
2023-04-29T02:56:14.873Z,11.35
2023-04-29T02:57:14.871Z,11.29
2023-04-29T02:58:14.927Z,11.15
2023-04-29T02:59:14.915Z,11.06
2023-04-29T03:00:14.911Z,10.94
2023-04-29T03:01:14.971Z,10.99
2023-04-29T03:02:15.016Z,11.36
2023-04-29T03:03:15.193Z,11.54
2023-04-29T03:04:15.214Z,12.37
2023-04-29T03:05:15.043Z,12.73
2023-04-29T03:06:15.105Z,13.17
2023-04-29T03:07:15.124Z,13.32
2023-04-29T03:08:15.154Z,13.59
2023-04-29T03:09:15.158Z,13.51
2023-04-29T03:10:15.218Z,13.70
2023-04-29T03:11:15.214Z,13.79
2023-04-29T03:12:15.236Z,13.65
2023-04-29T03:13:15.266Z,13.68
2023-04-29T03:14:15.300Z,14.00
2023-04-29T03:15:15.326Z,13.78
2023-04-29T03:16:15.406Z,13.08
2023-04-29T03:17:15.412Z,13.63
2023-04-29T03:18:15.434Z,13.52
2023-04-29T03:19:15.485Z,13.72
2023-04-29T03:20:15.492Z,13.04
2023-04-29T03:21:15.514Z,12.99
2023-04-29T03:22:15.516Z,12.23
2023-04-29T03:23:15.563Z,11.63
2023-04-29T03:24:15.579Z,11.49
2023-04-29T03:25:15.655Z,11.72
2023-04-29T03:26:15.680Z,11.73
2023-04-29T03:27:15.648Z,11.59
2023-04-29T03:28:15.714Z,11.48
2023-04-29T03:29:15.721Z,11.42
2023-04-29T03:30:15.750Z,11.32
2023-04-29T03:31:15.766Z,10.98
2023-04-29T03:32:15.807Z,11.07
2023-04-29T03:33:15.844Z,10.74
2023-04-29T03:34:15.850Z,10.55
2023-04-29T03:35:16.180Z,10.17
2023-04-29T03:36:16.089Z,10.25
2023-04-29T03:37:15.925Z,10.12
2023-04-29T03:38:15.944Z,9.83
2023-04-29T03:39:15.989Z,9.57
2023-04-29T03:40:16.558Z,9.47
2023-04-29T03:41:16.046Z,8.71
2023-04-29T03:42:16.066Z,8.40
2023-04-29T03:43:16.116Z,7.85
2023-04-29T03:44:16.108Z,7.84
2023-04-29T03:45:16.165Z,7.94
2023-04-29T03:46:16.193Z,8.04
2023-04-29T03:47:16.193Z,8.03
2023-04-29T03:48:16.246Z,8.40
2023-04-29T03:49:16.231Z,8.73
2023-04-29T03:50:16.267Z,9.28
2023-04-29T03:51:16.267Z,9.84
2023-04-29T03:52:16.313Z,10.03
2023-04-29T03:53:16.340Z,10.02
2023-04-29T03:54:16.344Z,10.00
2023-04-29T03:55:16.493Z,9.90
2023-04-29T03:56:17.383Z,10.27
2023-04-29T03:57:16.420Z,9.81
2023-04-29T03:58:16.429Z,9.83
2023-04-29T03:59:16.468Z,9.68
2023-04-29T04:00:16.466Z,9.60
2023-04-29T04:01:16.487Z,9.68
2023-04-29T04:02:16.536Z,9.65
2023-04-29T04:03:16.601Z,10.06
2023-04-29T04:04:16.733Z,9.92
2023-04-29T04:05:16.593Z,9.83
2023-04-29T04:06:16.598Z,9.83
2023-04-29T04:07:16.609Z,9.68
2023-04-29T04:08:16.625Z,9.87
2023-04-29T04:09:16.677Z,10.23
2023-04-29T04:10:16.704Z,10.25
2023-04-29T04:11:16.732Z,10.13
2023-04-29T04:12:16.772Z,10.21
2023-04-29T04:13:16.770Z,10.33
2023-04-29T04:14:17.531Z,10.19
2023-04-29T04:15:16.831Z,10.37
2023-04-29T04:16:16.873Z,10.32
2023-04-29T04:17:16.857Z,10.32
2023-04-29T04:18:17.034Z,10.15
2023-04-29T04:19:16.956Z,10.30
2023-04-29T04:20:16.947Z,10.44
2023-04-29T04:21:16.970Z,10.41
2023-04-29T04:22:17.030Z,10.51
2023-04-29T04:23:17.042Z,10.72
2023-04-29T04:24:17.121Z,10.46
2023-04-29T04:25:17.093Z,10.26
2023-04-29T04:26:17.122Z,10.07
2023-04-29T04:27:17.138Z,10.47
2023-04-29T04:28:17.168Z,10.25
2023-04-29T04:29:17.235Z,10.04
2023-04-29T04:30:17.227Z,9.76
2023-04-29T04:31:17.311Z,9.68
2023-04-29T04:32:17.309Z,9.30
2023-04-29T04:33:17.351Z,9.34
2023-04-29T04:34:17.376Z,9.36
2023-04-29T04:35:17.421Z,9.37
2023-04-29T04:36:17.471Z,9.28
2023-04-29T04:37:17.509Z,9.03
2023-04-29T04:38:17.533Z,8.91
2023-04-29T04:39:17.554Z,8.78
2023-04-29T04:40:17.625Z,8.44
2023-04-29T04:41:17.627Z,8.14
2023-04-29T04:42:17.660Z,7.68
2023-04-29T04:43:17.684Z,7.67
2023-04-29T04:44:17.731Z,7.56
2023-04-29T04:45:17.733Z,7.57
2023-04-29T04:46:17.866Z,7.26
2023-04-29T04:47:17.817Z,7.63
2023-04-29T04:48:17.853Z,7.33
2023-04-29T04:49:17.899Z,7.48
2023-04-29T04:50:17.960Z,7.64
2023-04-29T04:51:17.984Z,7.59
2023-04-29T04:52:18.001Z,7.46
2023-04-29T04:53:18.067Z,7.57
2023-04-29T04:54:18.115Z,7.51
2023-04-29T04:55:18.129Z,7.62
2023-04-29T04:56:18.136Z,7.75
2023-04-29T04:57:18.159Z,7.70
2023-04-29T04:58:18.219Z,7.63
2023-04-29T04:59:18.252Z,7.69
2023-04-29T05:00:18.354Z,7.96
2023-04-29T05:01:18.354Z,7.92
2023-04-29T05:02:18.411Z,7.93
2023-04-29T05:03:18.586Z,8.22
2023-04-29T05:04:18.617Z,8.39
2023-04-29T05:05:18.518Z,8.55
2023-04-29T05:06:18.563Z,8.50
2023-04-29T05:07:18.562Z,8.80
2023-04-29T05:08:18.704Z,8.59
2023-04-29T05:09:18.652Z,8.65
2023-04-29T05:10:18.734Z,8.50
2023-04-29T05:11:18.696Z,8.31
2023-04-29T05:12:18.728Z,8.19
2023-04-29T05:13:18.745Z,8.17
2023-04-29T05:14:18.805Z,7.95
2023-04-29T05:15:18.869Z,8.06
2023-04-29T05:16:18.889Z,7.84
2023-04-29T05:17:18.940Z,7.78
2023-04-29T05:18:18.907Z,7.75
2023-04-29T05:19:18.962Z,7.74
2023-04-29T05:20:18.959Z,7.81
2023-04-29T05:21:18.983Z,7.46
2023-04-29T05:22:19.031Z,7.33
2023-04-29T05:23:19.040Z,6.88
2023-04-29T05:24:19.063Z,6.57
2023-04-29T05:25:19.070Z,6.78
2023-04-29T05:26:19.122Z,6.61
2023-04-29T05:27:19.104Z,6.33
2023-04-29T05:28:19.153Z,6.03
2023-04-29T05:29:19.196Z,6.16
2023-04-29T05:30:19.234Z,6.03
2023-04-29T05:31:19.244Z,6.07
2023-04-29T05:32:19.228Z,6.24
2023-04-29T05:33:19.268Z,6.42
2023-04-29T05:34:19.282Z,6.65
2023-04-29T05:35:19.364Z,6.48
2023-04-29T05:36:19.349Z,6.76
2023-04-29T05:37:19.375Z,6.88
2023-04-29T05:38:19.434Z,7.20
2023-04-29T05:39:19.442Z,7.41
2023-04-29T05:40:19.476Z,7.69
2023-04-29T05:41:19.489Z,7.43
2023-04-29T05:42:19.508Z,7.83
2023-04-29T05:43:19.536Z,8.25
2023-04-29T05:44:19.563Z,8.52
2023-04-29T05:45:19.590Z,8.50
2023-04-29T05:46:19.683Z,8.38
2023-04-29T05:47:19.646Z,8.64
2023-04-29T05:48:19.660Z,8.34
2023-04-29T05:49:19.696Z,8.63
2023-04-29T05:50:19.708Z,8.97
2023-04-29T05:51:19.766Z,9.09
2023-04-29T05:52:19.771Z,9.36
2023-04-29T05:53:19.801Z,9.25
2023-04-29T05:54:19.833Z,9.02
2023-04-29T05:55:19.892Z,8.89
2023-04-29T05:56:19.914Z,8.92
2023-04-29T05:57:19.949Z,8.81
2023-04-29T05:58:20.013Z,9.25
2023-04-29T05:59:20.029Z,9.52
2023-04-29T06:00:20.103Z,9.80
2023-04-29T06:01:20.081Z,9.92
2023-04-29T06:02:20.298Z,10.17
2023-04-29T06:03:20.219Z,9.82
2023-04-29T06:04:20.510Z,9.40
2023-04-29T06:05:20.394Z,9.04
2023-04-29T06:06:20.304Z,8.71
2023-04-29T06:07:20.445Z,8.43
2023-04-29T06:08:20.286Z,8.32
2023-04-29T06:09:27.632Z,8.47
2023-04-29T06:10:21.326Z,8.48
2023-04-29T06:11:20.293Z,8.47
2023-04-29T06:12:20.297Z,8.55
2023-04-29T06:13:20.282Z,8.69
2023-04-29T06:14:20.307Z,8.91
2023-04-29T06:15:20.300Z,8.86
2023-04-29T06:16:20.320Z,8.59
2023-04-29T06:17:20.288Z,8.30
2023-04-29T06:18:20.287Z,8.20
2023-04-29T06:19:20.287Z,8.19
2023-04-29T06:20:20.240Z,8.38
2023-04-29T06:21:20.251Z,8.04
2023-04-29T06:22:20.241Z,8.27
2023-04-29T06:23:20.250Z,8.48
2023-04-29T06:24:20.247Z,8.51
2023-04-29T06:25:20.213Z,8.54
2023-04-29T06:26:20.316Z,8.92
2023-04-29T06:27:20.188Z,8.44
2023-04-29T06:28:20.190Z,8.48
2023-04-29T06:29:20.232Z,7.94
2023-04-29T06:30:20.266Z,7.51
2023-04-29T06:31:22.556Z,7.65
2023-04-29T06:32:20.272Z,7.56
2023-04-29T06:33:20.288Z,7.50
2023-04-29T06:34:20.238Z,7.47
2023-04-29T06:35:20.228Z,7.53
2023-04-29T06:36:20.254Z,7.50
2023-04-29T06:37:20.232Z,7.08
2023-04-29T06:38:20.242Z,6.92
2023-04-29T06:39:20.203Z,6.66
2023-04-29T06:40:20.214Z,6.31
2023-04-29T06:41:20.197Z,6.47
2023-04-29T06:42:20.178Z,6.47
2023-04-29T06:43:20.192Z,6.76
2023-04-29T06:44:20.187Z,6.87
2023-04-29T06:45:20.193Z,6.80
2023-04-29T06:46:20.212Z,6.01
2023-04-29T06:47:20.149Z,5.43
2023-04-29T06:48:20.150Z,5.05
2023-04-29T06:49:20.156Z,4.83
2023-04-29T06:50:20.147Z,4.77
2023-04-29T06:51:20.149Z,4.52
2023-04-29T06:52:20.142Z,4.66
2023-04-29T06:53:20.108Z,4.50
2023-04-29T06:54:20.115Z,4.86
2023-04-29T06:55:20.105Z,4.64
2023-04-29T06:56:20.107Z,4.18
2023-04-29T06:57:20.071Z,4.13
2023-04-29T06:58:20.091Z,4.05
2023-04-29T06:59:20.133Z,3.98
2023-04-29T07:00:20.078Z,3.90
2023-04-29T07:01:20.131Z,3.94
2023-04-29T07:02:20.171Z,4.09
2023-04-29T07:03:20.146Z,4.16
2023-04-29T07:04:20.168Z,4.10
2023-04-29T07:05:20.035Z,4.01
2023-04-29T07:06:20.031Z,3.98
2023-04-29T07:07:20.002Z,4.09
2023-04-29T07:08:20.007Z,3.82
2023-04-29T07:09:20.028Z,3.91
2023-04-29T07:10:20.054Z,3.93
2023-04-29T07:11:19.992Z,3.83
2023-04-29T07:12:20.024Z,3.85
2023-04-29T07:13:19.977Z,3.83
2023-04-29T07:14:19.940Z,3.88
2023-04-29T07:15:19.993Z,3.79
2023-04-29T07:16:19.997Z,3.63
2023-04-29T07:17:19.980Z,3.53
2023-04-29T07:18:19.941Z,3.36
2023-04-29T07:19:19.919Z,3.50
2023-04-29T07:20:21.901Z,3.36
2023-04-29T07:21:20.061Z,3.36
2023-04-29T07:22:20.107Z,3.37
2023-04-29T07:23:20.131Z,3.37
2023-04-29T07:24:20.152Z,3.38
2023-04-29T07:25:20.156Z,3.19
2023-04-29T07:26:20.207Z,3.25
2023-04-29T07:27:20.240Z,3.25
2023-04-29T07:28:20.213Z,3.18
2023-04-29T07:29:20.235Z,3.13
2023-04-29T07:30:20.266Z,2.93
2023-04-29T07:31:20.333Z,2.99
2023-04-29T07:32:20.413Z,2.87
2023-04-29T07:33:20.302Z,2.91
2023-04-29T07:34:20.319Z,3.21
2023-04-29T07:35:20.382Z,3.20
2023-04-29T07:36:20.441Z,3.26
2023-04-29T07:37:20.469Z,3.17
2023-04-29T07:38:20.557Z,3.03
2023-04-29T07:39:20.608Z,2.90
2023-04-29T07:40:20.664Z,2.99
2023-04-29T07:41:20.721Z,3.23
2023-04-29T07:42:20.748Z,2.93
2023-04-29T07:43:20.784Z,3.03
2023-04-29T07:44:20.913Z,2.95
2023-04-29T07:45:20.913Z,2.94
2023-04-29T07:46:21.011Z,2.63
2023-04-29T07:47:21.102Z,2.65
2023-04-29T07:48:21.079Z,2.46
2023-04-29T07:49:21.137Z,2.29
2023-04-29T07:50:21.197Z,2.38
2023-04-29T07:51:21.257Z,2.21
2023-04-29T07:52:21.279Z,2.11
2023-04-29T07:53:21.377Z,2.07
2023-04-29T07:54:21.405Z,2.12
2023-04-29T07:55:21.488Z,2.11
2023-04-29T07:56:21.536Z,2.16
2023-04-29T07:57:21.551Z,1.93
2023-04-29T07:58:21.591Z,1.96
2023-04-29T07:59:21.592Z,1.88
2023-04-29T08:00:21.696Z,1.71
2023-04-29T08:01:21.734Z,1.62
2023-04-29T08:02:22.027Z,1.60
2023-04-29T08:03:21.942Z,1.54
2023-04-29T08:04:22.082Z,1.57
2023-04-29T08:05:22.072Z,1.49
2023-04-29T08:06:21.924Z,1.43
2023-04-29T08:07:21.987Z,1.35
2023-04-29T08:08:22.068Z,1.41
2023-04-29T08:09:22.071Z,1.34
2023-04-29T08:10:22.118Z,1.35
2023-04-29T08:11:22.133Z,1.30
2023-04-29T08:12:22.194Z,1.25
2023-04-29T08:13:22.200Z,1.26
2023-04-29T08:14:22.259Z,1.25
2023-04-29T08:15:22.317Z,1.22
2023-04-29T08:16:22.331Z,1.22
2023-04-29T08:17:22.411Z,1.11
2023-04-29T08:18:22.365Z,1.20
2023-04-29T08:19:22.420Z,1.27
2023-04-29T08:20:22.496Z,1.26
2023-04-29T08:21:22.503Z,1.25
2023-04-29T08:22:22.526Z,1.24
2023-04-29T08:23:23.102Z,1.21
2023-04-29T08:24:22.590Z,1.22
2023-04-29T08:25:22.626Z,1.26
2023-04-29T08:26:24.031Z,1.34
2023-04-29T08:27:22.681Z,1.36
2023-04-29T08:28:22.694Z,1.36
2023-04-29T08:29:22.752Z,1.35
2023-04-29T08:30:22.795Z,1.43
2023-04-29T08:31:22.795Z,1.43
2023-04-29T08:32:22.824Z,1.39
2023-04-29T08:33:22.844Z,1.44
2023-04-29T08:34:22.899Z,1.50
2023-04-29T08:35:22.910Z,1.61
2023-04-29T08:36:22.898Z,1.65
2023-04-29T08:37:22.934Z,1.75
2023-04-29T08:38:22.937Z,1.74
2023-04-29T08:39:22.944Z,1.75
2023-04-29T08:40:22.949Z,1.73
2023-04-29T08:41:22.988Z,1.90
2023-04-29T08:42:22.971Z,2.10
2023-04-29T08:43:22.969Z,1.85
2023-04-29T08:44:23.007Z,1.80
2023-04-29T08:45:23.015Z,1.86
2023-04-29T08:46:23.214Z,1.80
2023-04-29T08:47:23.364Z,1.64
2023-04-29T08:48:23.689Z,1.75
2023-04-29T08:49:23.079Z,1.60
2023-04-29T08:50:23.122Z,1.55
2023-04-29T08:51:23.170Z,1.45
2023-04-29T08:52:23.148Z,1.59
2023-04-29T08:53:23.166Z,1.93
2023-04-29T08:54:23.177Z,2.06
2023-04-29T08:55:23.162Z,1.93
2023-04-29T08:56:23.245Z,1.90
2023-04-29T08:57:23.199Z,2.00
2023-04-29T08:58:23.244Z,1.78
2023-04-29T08:59:23.236Z,1.64
2023-04-29T09:00:23.213Z,1.48
2023-04-29T09:01:23.378Z,1.57
2023-04-29T09:02:23.360Z,1.33
2023-04-29T09:03:23.268Z,1.33
2023-04-29T09:04:23.399Z,1.29
2023-04-29T09:05:23.273Z,1.22
2023-04-29T09:06:23.276Z,1.18
2023-04-29T09:07:23.289Z,1.11
2023-04-29T09:08:23.307Z,1.10
2023-04-29T09:09:23.285Z,1.00
2023-04-29T09:10:23.334Z,1.00
2023-04-29T09:11:23.348Z,1.02
2023-04-29T09:12:23.350Z,1.19
2023-04-29T09:13:23.361Z,1.12
2023-04-29T09:14:23.373Z,1.09
2023-04-29T09:15:23.374Z,1.01
2023-04-29T09:16:23.462Z,1.09
2023-04-29T09:17:23.455Z,0.97
2023-04-29T09:18:23.445Z,0.94
2023-04-29T09:19:23.458Z,1.01
2023-04-29T09:20:23.527Z,0.97
2023-04-29T09:21:23.518Z,1.00
2023-04-29T09:22:23.557Z,0.93
2023-04-29T09:23:23.592Z,0.85
2023-04-29T09:24:23.645Z,0.88
2023-04-29T09:25:23.754Z,0.94
2023-04-29T09:26:23.741Z,0.90
2023-04-29T09:27:23.778Z,0.79
2023-04-29T09:28:23.875Z,0.70
2023-04-29T09:29:23.909Z,0.71
2023-04-29T09:30:23.947Z,0.69
2023-04-29T09:31:24.036Z,0.66
2023-04-29T09:32:24.073Z,0.70
2023-04-29T09:33:24.155Z,0.80
2023-04-29T09:34:24.168Z,0.82
2023-04-29T09:35:24.220Z,0.83
2023-04-29T09:36:24.289Z,0.99
2023-04-29T09:37:24.303Z,0.97
2023-04-29T09:38:24.379Z,0.83
2023-04-29T09:39:24.409Z,0.76
2023-04-29T09:40:24.436Z,0.80
2023-04-29T09:41:24.475Z,0.75
2023-04-29T09:42:24.589Z,0.69
2023-04-29T09:43:24.592Z,0.76
2023-04-29T09:44:24.613Z,0.77
2023-04-29T09:45:24.654Z,0.81
2023-04-29T09:46:24.722Z,0.80
2023-04-29T09:47:24.739Z,0.87
2023-04-29T09:48:24.760Z,0.79
2023-04-29T09:49:24.810Z,0.90
2023-04-29T09:50:24.830Z,0.85
2023-04-29T09:51:24.842Z,0.79
2023-04-29T09:52:24.845Z,0.77
2023-04-29T09:53:24.899Z,0.79
2023-04-29T09:54:24.938Z,0.72
2023-04-29T09:55:24.965Z,0.75
2023-04-29T09:56:25.026Z,0.66
2023-04-29T09:57:25.023Z,0.56
2023-04-29T09:58:25.042Z,0.56
2023-04-29T09:59:25.053Z,0.59
2023-04-29T10:00:25.081Z,0.56
2023-04-29T10:01:25.144Z,0.58
2023-04-29T10:02:25.182Z,0.59
2023-04-29T10:03:25.259Z,0.60
2023-04-29T10:04:25.282Z,0.68
2023-04-29T10:05:25.247Z,0.69
2023-04-29T10:06:25.254Z,0.64
2023-04-29T10:07:25.305Z,0.61
2023-04-29T10:08:25.294Z,0.65
2023-04-29T10:09:25.305Z,0.59
2023-04-29T10:10:25.372Z,0.69
2023-04-29T10:11:25.375Z,0.60
2023-04-29T10:12:25.388Z,0.57
2023-04-29T10:13:25.441Z,0.62
2023-04-29T10:14:25.456Z,0.56
2023-04-29T10:15:25.496Z,0.55
2023-04-29T10:16:25.640Z,0.56
2023-04-29T10:17:25.536Z,0.60
2023-04-29T10:18:25.581Z,0.60
2023-04-29T10:19:25.554Z,0.59
2023-04-29T10:20:25.646Z,0.53
2023-04-29T10:21:25.630Z,0.60
2023-04-29T10:22:25.608Z,0.54
2023-04-29T10:23:25.622Z,0.51
2023-04-29T10:24:25.662Z,0.57
2023-04-29T10:25:25.683Z,0.55
2023-04-29T10:26:25.690Z,0.53
2023-04-29T10:27:25.744Z,0.53
2023-04-29T10:28:25.714Z,0.53
2023-04-29T10:29:25.741Z,0.62
2023-04-29T10:30:25.782Z,0.65
2023-04-29T10:31:25.838Z,0.63
2023-04-29T10:32:25.800Z,0.60
2023-04-29T10:33:25.807Z,0.68
2023-04-29T10:34:25.780Z,0.68
2023-04-29T10:35:26.108Z,0.71
2023-04-29T10:36:25.822Z,0.67
2023-04-29T10:37:25.802Z,0.73
2023-04-29T10:38:25.869Z,0.84
2023-04-29T10:39:25.857Z,0.85
2023-04-29T10:40:25.838Z,0.93
2023-04-29T10:41:25.919Z,0.91
2023-04-29T10:42:25.898Z,0.90
2023-04-29T10:43:25.930Z,0.96
2023-04-29T10:44:25.938Z,0.87
2023-04-29T10:45:25.978Z,0.88
2023-04-29T10:46:26.063Z,0.87
2023-04-29T10:47:26.088Z,0.84
2023-04-29T10:48:26.104Z,0.78
2023-04-29T10:49:26.154Z,0.77
2023-04-29T10:50:26.211Z,0.72
2023-04-29T10:51:26.255Z,0.71
2023-04-29T10:52:26.286Z,0.67
2023-04-29T10:53:26.368Z,0.63
2023-04-29T10:54:26.424Z,0.67
2023-04-29T10:55:26.504Z,0.67
2023-04-29T10:56:26.531Z,0.70
2023-04-29T10:57:26.561Z,0.71
2023-04-29T10:58:26.621Z,0.70
2023-04-29T10:59:26.684Z,0.67
2023-04-29T11:00:26.752Z,0.69
2023-04-29T11:01:26.810Z,0.69
2023-04-29T11:02:26.863Z,0.72
2023-04-29T11:03:26.970Z,0.75
2023-04-29T11:04:26.953Z,0.83
2023-04-29T11:05:27.829Z,0.88
2023-04-29T11:06:27.040Z,0.83
2023-04-29T11:07:27.107Z,0.83
2023-04-29T11:08:27.081Z,0.79
2023-04-29T11:09:27.124Z,0.79
2023-04-29T11:10:27.181Z,0.80
2023-04-29T11:11:28.405Z,0.82
2023-04-29T11:12:27.248Z,0.79
2023-04-29T11:13:27.326Z,0.78
2023-04-29T11:14:27.327Z,0.66
2023-04-29T11:15:27.379Z,0.66
2023-04-29T11:16:27.420Z,0.67
2023-04-29T11:17:28.408Z,0.65
2023-04-29T11:18:27.490Z,0.67
2023-04-29T11:19:27.522Z,0.64
2023-04-29T11:20:27.570Z,0.65
2023-04-29T11:21:27.628Z,0.67
2023-04-29T11:22:27.651Z,0.66
2023-04-29T11:23:28.458Z,0.63
2023-04-29T11:24:27.730Z,0.63
2023-04-29T11:25:27.736Z,0.61
2023-04-29T11:26:27.805Z,0.59
2023-04-29T11:27:27.843Z,0.60
2023-04-29T11:28:27.887Z,0.63
2023-04-29T11:29:27.896Z,0.58
2023-04-29T11:30:27.935Z,0.60
2023-04-29T11:31:29.030Z,0.62
2023-04-29T11:32:28.114Z,0.68
2023-04-29T11:33:28.168Z,0.68
2023-04-29T11:34:28.115Z,0.62
2023-04-29T11:35:28.097Z,0.62
2023-04-29T11:36:28.126Z,0.43
2023-04-29T11:37:28.217Z,0.37
2023-04-29T11:38:28.236Z,0.34
2023-04-29T11:39:28.323Z,0.35
2023-04-29T11:40:28.323Z,0.43
2023-04-29T11:41:28.414Z,0.52
2023-04-29T11:42:28.430Z,0.49
2023-04-29T11:43:28.470Z,0.46
2023-04-29T11:44:28.550Z,0.41
2023-04-29T11:45:28.566Z,0.47
2023-04-29T11:46:28.612Z,0.53
2023-04-29T11:47:28.607Z,0.71
2023-04-29T11:48:28.626Z,0.79
2023-04-29T11:49:28.665Z,0.77
2023-04-29T11:50:28.704Z,0.62
2023-04-29T11:51:28.750Z,0.57
2023-04-29T11:52:28.826Z,0.68
2023-04-29T11:53:28.918Z,0.78
2023-04-29T11:54:28.911Z,0.81
2023-04-29T11:55:28.940Z,0.68
2023-04-29T11:56:29.001Z,0.62
2023-04-29T11:57:29.046Z,0.80
2023-04-29T11:58:29.100Z,0.94
2023-04-29T11:59:29.156Z,1.02
2023-04-29T12:00:29.216Z,1.04
2023-04-29T12:01:29.282Z,1.17
2023-04-29T12:02:29.414Z,1.31
2023-04-29T12:03:29.542Z,1.32
2023-04-29T12:04:29.607Z,1.32
2023-04-29T12:05:29.477Z,1.50
2023-04-29T12:06:29.464Z,1.49
2023-04-29T12:07:29.543Z,1.50
2023-04-29T12:08:29.557Z,1.41
2023-04-29T12:09:29.608Z,1.46
2023-04-29T12:10:29.618Z,1.65
2023-04-29T12:11:29.664Z,1.58
2023-04-29T12:12:29.654Z,1.63
2023-04-29T12:13:29.697Z,1.76
2023-04-29T12:14:29.717Z,1.82
2023-04-29T12:15:29.753Z,1.97
2023-04-29T12:16:29.901Z,2.28
2023-04-29T12:17:29.809Z,2.64
2023-04-29T12:18:29.840Z,2.82
2023-04-29T12:19:29.828Z,3.11
2023-04-29T12:20:29.845Z,3.38
2023-04-29T12:21:29.896Z,3.34
2023-04-29T12:22:29.893Z,3.39
2023-04-29T12:23:29.927Z,3.26
2023-04-29T12:24:29.924Z,3.45
2023-04-29T12:25:29.954Z,3.61
2023-04-29T12:26:29.952Z,3.67
2023-04-29T12:27:29.967Z,3.76
2023-04-29T12:28:30.015Z,3.66
2023-04-29T12:29:29.968Z,3.93
2023-04-29T12:30:29.995Z,3.84
2023-04-29T12:31:30.141Z,3.60
2023-04-29T12:32:30.064Z,3.14
2023-04-29T12:33:30.077Z,3.31
2023-04-29T12:34:30.086Z,3.59
2023-04-29T12:35:30.068Z,3.46
2023-04-29T12:36:30.106Z,3.31
2023-04-29T12:37:30.130Z,3.43
2023-04-29T12:38:30.119Z,3.52
2023-04-29T12:39:30.159Z,3.68
2023-04-29T12:40:30.530Z,3.68
2023-04-29T12:41:30.145Z,3.82
2023-04-29T12:42:30.202Z,3.72
2023-04-29T12:43:30.198Z,3.58
2023-04-29T12:44:30.350Z,3.48
2023-04-29T12:45:30.225Z,3.67
2023-04-29T12:46:30.249Z,2.92
2023-04-29T12:47:30.242Z,2.39
2023-04-29T12:48:32.774Z,2.29
2023-04-29T12:49:30.295Z,2.21
2023-04-29T12:50:30.242Z,2.29
2023-04-29T12:51:30.211Z,2.20
2023-04-29T12:52:30.223Z,2.27
2023-04-29T12:53:30.187Z,2.20
2023-04-29T12:54:30.191Z,1.98
2023-04-29T12:55:30.178Z,1.90
2023-04-29T12:56:30.183Z,1.89
2023-04-29T12:57:30.206Z,2.24
2023-04-29T12:58:30.197Z,2.09
2023-04-29T12:59:30.171Z,1.99
2023-04-29T13:00:30.151Z,2.34
2023-04-29T13:01:30.208Z,2.41
2023-04-29T13:02:30.583Z,2.90
2023-04-29T13:03:30.455Z,3.70
2023-04-29T13:04:30.226Z,5.09
2023-04-29T13:05:30.143Z,5.68
2023-04-29T13:06:30.140Z,6.87
2023-04-29T13:07:30.109Z,7.50
2023-04-29T13:08:30.101Z,8.26
2023-04-29T13:09:30.086Z,7.77
2023-04-29T13:10:30.064Z,7.63